createdAt,value
2022-11-04T00:02:42.004Z,13.73
2022-11-04T00:05:43.833Z,14.13
2022-11-04T00:08:49.328Z,15.67
2022-11-04T00:12:09.604Z,17.40
2022-11-04T00:15:29.936Z,14.73
2022-11-04T00:18:31.582Z,13.10
2022-11-04T00:21:51.721Z,12.63
2022-11-04T00:25:12.017Z,13.10
2022-11-04T00:28:32.558Z,12.23
2022-11-04T00:32:06.640Z,12.00
2022-11-04T00:35:08.888Z,13.17
2022-11-04T00:38:10.742Z,12.43
2022-11-04T00:41:28.362Z,13.30
2022-11-04T00:44:30.187Z,12.73
2022-11-04T00:47:31.766Z,13.23
2022-11-04T00:50:33.384Z,12.77
2022-11-04T00:53:35.392Z,13.40
2022-11-04T00:56:40.854Z,15.03
2022-11-04T00:59:42.793Z,16.13
2022-11-04T01:02:44.426Z,14.53
2022-11-04T01:05:46.077Z,15.90
2022-11-04T01:08:47.993Z,14.27
2022-11-04T01:11:49.681Z,13.80
2022-11-04T01:14:51.262Z,14.00
2022-11-04T01:17:52.934Z,14.50
2022-11-04T01:20:54.516Z,15.00
2022-11-04T01:23:56.199Z,15.00
2022-11-04T01:26:57.789Z,15.87
2022-11-04T01:29:59.461Z,15.40
2022-11-04T01:33:01.083Z,15.73
2022-11-04T01:36:03.206Z,16.43
2022-11-04T01:39:04.786Z,15.00
2022-11-04T01:42:06.425Z,15.10
2022-11-04T01:45:15.576Z,15.60
2022-11-04T01:48:28.990Z,16.03
2022-11-04T01:51:31.947Z,14.83
2022-11-04T01:54:34.776Z,16.00
2022-11-04T01:57:40.233Z,16.00
2022-11-04T02:00:42.300Z,16.87
2022-11-04T02:03:43.832Z,16.43
2022-11-04T02:06:49.565Z,16.60
2022-11-04T02:09:51.226Z,17.13
2022-11-04T02:12:53.249Z,16.37
2022-11-04T02:16:04.545Z,17.30
2022-11-04T02:19:06.121Z,16.90
2022-11-04T02:22:10.510Z,15.90
2022-11-04T02:25:20.932Z,17.47
2022-11-04T02:28:22.850Z,16.23
2022-11-04T02:31:35.011Z,16.77
2022-11-04T02:34:40.608Z,16.60
2022-11-04T02:37:58.807Z,17.13
2022-11-04T02:41:00.401Z,16.53
2022-11-04T02:44:04.956Z,17.63
2022-11-04T02:47:08.593Z,18.17
2022-11-04T02:50:10.160Z,18.67
2022-11-04T02:53:17.435Z,18.03
2022-11-04T02:56:21.007Z,19.57
2022-11-04T02:59:34.774Z,18.23
2022-11-04T03:02:44.200Z,18.33
2022-11-04T03:05:47.809Z,17.83
2022-11-04T03:08:51.182Z,18.23
2022-11-04T03:11:55.585Z,17.97
2022-11-04T03:15:01.008Z,18.63
2022-11-04T03:18:18.960Z,19.20
2022-11-04T03:21:20.947Z,19.50
2022-11-04T03:24:22.588Z,18.97
2022-11-04T03:27:33.412Z,19.60
2022-11-04T03:30:55.763Z,20.20
2022-11-04T03:33:57.550Z,21.60
2022-11-04T03:36:59.450Z,20.50
2022-11-04T03:40:01.154Z,19.13
2022-11-04T03:43:11.169Z,19.57
2022-11-04T03:46:13.084Z,19.50
2022-11-04T03:49:15.352Z,19.47
2022-11-04T03:52:17.781Z,19.70
2022-11-04T03:55:19.509Z,20.53
2022-11-04T03:58:29.226Z,20.90
2022-11-04T04:01:30.970Z,21.40
2022-11-04T04:04:35.034Z,19.77
2022-11-04T04:07:42.089Z,18.60
2022-11-04T04:10:56.486Z,19.00
2022-11-04T04:14:07.236Z,19.70
2022-11-04T04:17:12.071Z,20.10
2022-11-04T04:20:24.477Z,19.83
2022-11-04T04:23:46.822Z,19.93
2022-11-04T04:27:07.642Z,20.30
2022-11-04T04:30:10.544Z,20.33
2022-11-04T04:33:15.039Z,21.27
2022-11-04T04:36:16.776Z,20.00
2022-11-04T04:39:39.032Z,20.83
2022-11-04T04:42:59.422Z,22.37
2022-11-04T04:46:01.262Z,21.77
2022-11-04T04:49:09.446Z,21.63
2022-11-04T04:52:11.151Z,21.60
2022-11-04T04:55:13.638Z,21.87
2022-11-04T04:58:15.204Z,22.57
2022-11-04T05:01:17.010Z,21.80
2022-11-04T05:04:18.648Z,22.13
2022-11-04T05:07:20.237Z,22.70
2022-11-04T05:10:21.825Z,22.60
2022-11-04T05:13:26.202Z,21.73
2022-11-04T05:16:27.761Z,21.50
2022-11-04T05:19:29.350Z,20.90
2022-11-04T05:22:30.923Z,22.63
2022-11-04T05:25:32.510Z,21.57
2022-11-04T05:28:34.079Z,25.63
2022-11-04T05:31:35.780Z,21.60
2022-11-04T05:34:37.448Z,20.73
2022-11-04T05:37:39.015Z,23.03
2022-11-04T05:44:10.790Z,21.47
2022-11-04T05:47:12.394Z,24.43
2022-11-04T05:50:13.944Z,22.47
2022-11-04T05:53:15.549Z,25.00
2022-11-04T05:56:17.484Z,25.23
2022-11-04T05:59:19.006Z,23.57
2022-11-04T06:02:20.759Z,25.03
2022-11-04T06:05:22.450Z,24.63
2022-11-04T06:08:23.989Z,26.00
2022-11-04T06:11:26.111Z,21.57
2022-11-04T06:14:27.675Z,21.67
2022-11-04T06:17:29.189Z,22.40
2022-11-04T06:20:30.780Z,20.63
2022-11-04T06:23:32.418Z,24.93
2022-11-04T06:26:33.988Z,19.83
2022-11-04T06:29:39.960Z,21.73
2022-11-04T06:32:41.606Z,19.97
2022-11-04T06:35:43.176Z,20.43
2022-11-04T06:38:45.422Z,21.33
2022-11-04T06:41:50.499Z,27.20
2022-11-04T06:44:53.335Z,18.70
2022-11-04T06:47:54.892Z,15.97
2022-11-04T06:50:57.908Z,15.87
2022-11-04T06:53:59.563Z,14.83
2022-11-04T06:57:01.103Z,14.00
2022-11-04T07:00:03.169Z,15.33
2022-11-04T07:03:04.743Z,14.50
2022-11-04T07:06:07.615Z,14.37
2022-11-04T07:09:09.916Z,15.57
2022-11-04T07:12:11.523Z,15.83
2022-11-04T07:15:13.312Z,15.37
2022-11-04T07:18:14.940Z,17.17
2022-11-04T07:21:16.578Z,18.50
2022-11-04T07:24:18.157Z,17.37
2022-11-04T07:27:19.981Z,14.73
2022-11-04T07:30:21.647Z,13.77
2022-11-04T07:33:23.287Z,13.23
2022-11-04T07:36:24.886Z,12.67
2022-11-04T07:39:26.458Z,11.37
2022-11-04T07:42:28.153Z,10.87
2022-11-04T07:45:30.942Z,11.83
2022-11-04T07:48:32.602Z,10.47
2022-11-04T07:51:34.588Z,10.83
2022-11-04T07:54:36.128Z,10.97
2022-11-04T07:57:37.806Z,10.47
2022-11-04T08:00:39.431Z,10.77
2022-11-04T08:03:41.167Z,10.43
2022-11-04T08:06:42.756Z,10.27
2022-11-04T08:09:44.328Z,10.47
2022-11-04T08:12:45.947Z,10.27
2022-11-04T08:15:47.551Z,10.27
2022-11-04T08:18:49.974Z,10.27
2022-11-04T08:21:51.614Z,10.18
2022-11-04T08:24:53.219Z,10.60
2022-11-04T08:28:00.507Z,9.63
2022-11-04T08:31:05.210Z,10.07
2022-11-04T08:34:08.470Z,9.43
2022-11-04T08:37:10.089Z,9.70
2022-11-04T08:40:11.773Z,9.50
2022-11-04T08:43:13.434Z,9.35
2022-11-04T08:46:15.583Z,9.32
2022-11-04T08:49:21.036Z,9.15
2022-11-04T08:52:23.843Z,9.32
2022-11-04T08:55:25.445Z,9.85
2022-11-04T08:58:27.067Z,10.43
2022-11-04T09:01:34.436Z,10.35
2022-11-04T09:04:37.389Z,9.50
2022-11-04T09:07:39.046Z,9.93
2022-11-04T09:10:41.670Z,9.45
2022-11-04T09:13:43.501Z,9.65
2022-11-04T09:16:45.169Z,9.60
2022-11-04T09:19:46.806Z,9.23
2022-11-04T09:22:50.772Z,9.10
2022-11-04T09:25:52.445Z,10.20
2022-11-04T09:28:55.092Z,9.93
2022-11-04T09:31:56.747Z,10.27
2022-11-04T09:34:58.293Z,9.77
2022-11-04T09:38:01.326Z,8.87
2022-11-04T09:41:08.485Z,9.17
2022-11-04T09:44:30.332Z,9.77
2022-11-04T09:47:33.750Z,9.30
2022-11-04T09:50:46.844Z,9.57
2022-11-04T09:53:51.424Z,9.83
2022-11-04T09:56:54.645Z,10.57
2022-11-04T09:59:56.252Z,10.50
2022-11-04T10:03:16.720Z,9.10
2022-11-04T10:06:38.100Z,10.43
2022-11-04T10:09:39.679Z,10.10
2022-11-04T10:12:52.372Z,9.53
2022-11-04T10:16:02.086Z,8.93
2022-11-04T10:19:26.231Z,9.40
2022-11-04T10:22:29.204Z,9.70
2022-11-04T10:25:38.349Z,10.10
2022-11-04T10:28:44.014Z,9.87
2022-11-04T10:31:46.920Z,9.90
2022-11-04T10:35:02.291Z,9.63
2022-11-04T10:38:33.282Z,9.10
2022-11-04T10:41:37.032Z,9.47
2022-11-04T10:44:38.909Z,9.30
2022-11-04T10:47:46.184Z,10.30
2022-11-04T10:50:53.813Z,9.10
2022-11-04T10:53:56.657Z,9.20
2022-11-04T10:56:58.626Z,10.07
2022-11-04T11:00:01.800Z,9.53
2022-11-04T11:03:04.041Z,10.07
2022-11-04T11:06:14.379Z,10.80
2022-11-04T11:09:22.460Z,9.73
2022-11-04T11:12:50.577Z,9.47
2022-11-04T11:16:03.901Z,9.37
2022-11-04T11:19:11.529Z,10.03
2022-11-04T11:22:28.751Z,10.07
2022-11-04T11:25:33.959Z,8.87
2022-11-04T11:28:38.334Z,10.03
2022-11-04T11:31:40.348Z,10.10
2022-11-04T11:34:45.652Z,9.13
2022-11-04T11:37:47.584Z,9.03
2022-11-04T11:41:22.892Z,9.60
2022-11-04T11:44:25.650Z,9.23
2022-11-04T11:47:29.981Z,9.77
2022-11-04T11:50:34.347Z,9.70
2022-11-04T11:53:39.765Z,9.67
2022-11-04T11:57:12.127Z,10.53
2022-11-04T12:10:50.995Z,9.20
2022-11-04T12:13:56.074Z,9.37
2022-11-04T12:17:15.742Z,8.67
2022-11-04T12:20:36.066Z,8.73
2022-11-04T12:23:37.631Z,9.00
2022-11-04T12:27:14.880Z,8.60
2022-11-04T12:30:21.264Z,9.27
2022-11-04T12:33:46.647Z,9.23
2022-11-04T12:37:09.081Z,9.73
2022-11-04T12:40:12.516Z,8.67
2022-11-04T12:43:27.005Z,9.00
2022-11-04T12:46:34.466Z,9.00
2022-11-04T12:49:45.528Z,9.23
2022-11-04T12:52:52.670Z,8.77
2022-11-04T12:55:54.221Z,8.90
2022-11-04T12:59:04.816Z,8.70
2022-11-04T13:02:09.353Z,9.33
2022-11-04T13:05:20.456Z,8.40
2022-11-04T13:08:24.594Z,8.97
2022-11-04T13:11:35.209Z,9.17
2022-11-04T13:14:42.755Z,9.60
2022-11-04T13:17:45.561Z,8.90
2022-11-04T13:20:53.177Z,9.13
2022-11-04T13:23:54.731Z,8.30
2022-11-04T13:26:58.152Z,8.40
2022-11-04T13:30:22.131Z,9.03
2022-11-04T13:33:29.628Z,9.90
2022-11-04T13:36:36.763Z,9.03
2022-11-04T13:39:44.431Z,9.70
2022-11-04T13:43:28.436Z,8.90
2022-11-04T13:46:32.107Z,8.70
2022-11-04T13:49:37.229Z,8.50
2022-11-04T13:52:52.297Z,9.27
2022-11-04T13:55:56.247Z,10.40
2022-11-04T13:59:05.663Z,9.47
2022-11-04T14:02:19.635Z,9.00
2022-11-04T14:05:27.613Z,10.20
2022-11-04T14:08:29.341Z,9.67
2022-11-04T14:11:34.835Z,11.10
2022-11-04T14:14:41.845Z,10.07
2022-11-04T14:17:43.435Z,10.27
2022-11-04T14:21:01.088Z,11.03
2022-11-04T14:24:16.068Z,11.10
2022-11-04T14:27:34.642Z,10.50
2022-11-04T14:30:49.008Z,10.73
2022-11-04T14:33:54.095Z,10.20
2022-11-04T14:36:57.141Z,10.17
2022-11-04T14:39:59.874Z,10.27
2022-11-04T14:43:01.874Z,10.63
2022-11-04T14:46:03.449Z,10.83
2022-11-04T14:49:05.036Z,10.70
2022-11-04T14:52:14.442Z,10.77
2022-11-04T14:55:29.569Z,11.07
2022-11-04T14:58:31.128Z,11.00
2022-11-04T15:01:35.282Z,11.27
2022-11-04T15:04:37.206Z,11.50
2022-11-04T15:07:39.602Z,10.73
2022-11-04T15:10:41.143Z,11.40
2022-11-04T15:13:47.403Z,11.60
2022-11-04T15:16:54.352Z,11.77
2022-11-04T15:19:57.568Z,11.73
2022-11-04T15:23:00.645Z,13.07
2022-11-04T15:26:02.361Z,13.80
2022-11-04T15:29:11.372Z,12.57
2022-11-04T15:32:16.992Z,12.20
2022-11-04T15:35:18.954Z,12.60
2022-11-04T15:38:21.187Z,12.73
2022-11-04T15:41:41.844Z,13.50
2022-11-04T15:44:51.120Z,12.07
2022-11-04T15:48:11.456Z,12.20
2022-11-04T15:51:21.601Z,12.93
2022-11-04T15:54:26.992Z,12.27
2022-11-04T15:57:38.079Z,11.90
2022-11-04T16:00:39.765Z,17.83
2022-11-04T16:03:47.306Z,16.30
2022-11-04T16:07:02.443Z,17.37
2022-11-04T16:10:22.614Z,16.20
2022-11-04T16:13:25.767Z,15.57
2022-11-04T16:16:27.840Z,16.17
2022-11-04T16:19:30.376Z,12.40
2022-11-04T16:22:40.661Z,13.83
2022-11-04T16:25:42.268Z,13.47
2022-11-04T16:28:43.916Z,14.90
2022-11-04T16:31:45.491Z,15.30
2022-11-04T16:34:52.870Z,15.00
2022-11-04T16:37:56.027Z,14.07
2022-11-04T16:40:57.642Z,12.23
2022-11-04T16:43:59.576Z,14.53
2022-11-04T16:47:02.060Z,15.27
2022-11-04T16:50:12.393Z,15.30
2022-11-04T16:53:14.035Z,15.57
2022-11-04T16:56:16.659Z,14.33
2022-11-04T16:59:18.216Z,14.73
2022-11-04T17:02:34.957Z,14.33
2022-11-04T17:05:36.688Z,15.13
2022-11-04T17:08:38.284Z,16.00
2022-11-04T17:11:39.869Z,16.23
2022-11-04T17:14:41.438Z,15.33
2022-11-04T17:17:43.132Z,15.30
2022-11-04T17:20:46.248Z,14.73
2022-11-04T17:23:47.923Z,15.80
2022-11-04T17:26:50.057Z,15.43
2022-11-04T17:29:51.602Z,15.17
2022-11-04T17:32:53.220Z,14.77
2022-11-04T17:35:54.844Z,16.97
2022-11-04T17:38:56.388Z,16.37
2022-11-04T17:42:16.643Z,15.27
2022-11-04T17:45:18.258Z,16.67
2022-11-04T17:48:19.873Z,16.57
2022-11-04T17:51:21.471Z,16.30
2022-11-04T17:54:23.779Z,16.00
2022-11-04T17:57:25.351Z,16.13
2022-11-04T18:00:29.702Z,17.17
2022-11-04T18:03:32.078Z,15.40
2022-11-04T18:06:34.744Z,16.03
2022-11-04T18:09:39.898Z,17.10
2022-11-04T18:12:41.740Z,16.73
2022-11-04T18:15:44.161Z,14.93
2022-11-04T18:18:45.725Z,16.27
2022-11-04T18:21:47.920Z,15.73
2022-11-04T18:24:49.968Z,17.53
2022-11-04T18:27:51.586Z,15.90
2022-11-04T18:30:53.119Z,17.27
2022-11-04T18:33:55.007Z,16.63
2022-11-04T18:36:58.130Z,16.17
2022-11-04T18:39:59.739Z,16.23
2022-11-04T18:43:07.551Z,17.17
2022-11-04T18:46:11.768Z,16.37
2022-11-04T18:49:14.261Z,17.33
2022-11-04T18:52:15.856Z,15.73
2022-11-04T18:55:17.549Z,15.63
2022-11-04T18:58:19.188Z,16.30
2022-11-04T19:01:23.560Z,16.27
2022-11-04T19:04:25.252Z,15.73
2022-11-04T19:07:26.923Z,17.13
2022-11-04T19:10:28.491Z,15.33
2022-11-04T19:13:30.048Z,16.50
2022-11-04T19:16:31.953Z,16.30
2022-11-04T19:19:33.468Z,16.43
2022-11-04T19:22:35.064Z,15.13
2022-11-04T19:25:40.787Z,16.47
2022-11-04T19:28:48.293Z,16.83
2022-11-04T19:31:50.526Z,16.53
2022-11-04T19:34:52.168Z,14.50
2022-11-04T19:37:53.848Z,16.57
2022-11-04T19:40:55.559Z,16.60
2022-11-04T19:43:57.462Z,15.63
2022-11-04T19:46:59.018Z,15.43
2022-11-04T19:50:00.672Z,14.53
2022-11-04T19:53:02.277Z,15.37
2022-11-04T19:56:04.192Z,15.53
2022-11-04T19:59:06.746Z,15.17
2022-11-04T20:02:09.753Z,15.63
2022-11-04T20:05:11.726Z,13.87
2022-11-04T20:08:13.588Z,14.47
2022-11-04T20:11:16.188Z,15.03
2022-11-04T20:14:17.915Z,14.33
2022-11-04T20:17:19.539Z,14.97
2022-11-04T20:20:21.184Z,13.57
2022-11-04T20:23:22.786Z,15.83
2022-11-04T20:26:24.807Z,15.57
2022-11-04T20:29:26.403Z,15.13
2022-11-04T20:32:27.939Z,15.60
2022-11-04T20:35:29.596Z,15.10
2022-11-04T20:38:31.211Z,15.13
2022-11-04T20:41:33.015Z,14.77
2022-11-04T20:44:34.583Z,15.60
2022-11-04T20:47:37.004Z,13.90
2022-11-04T20:50:38.612Z,14.87
2022-11-04T20:53:40.473Z,14.73
2022-11-04T20:56:42.534Z,14.93
2022-11-04T20:59:44.108Z,15.30
2022-11-04T21:02:45.765Z,15.67
2022-11-04T21:05:47.423Z,16.50
2022-11-04T21:08:49.030Z,15.77
2022-11-04T21:11:51.443Z,14.67
2022-11-04T21:14:53.162Z,14.60
2022-11-04T21:17:54.756Z,15.37
2022-11-04T21:20:57.285Z,14.60
2022-11-04T21:23:59.923Z,14.73
2022-11-04T21:27:02.000Z,13.37
2022-11-04T21:30:03.829Z,14.53
2022-11-04T21:33:05.750Z,14.47
2022-11-04T21:36:08.808Z,14.33
2022-11-04T21:39:11.190Z,14.43
2022-11-04T21:42:12.821Z,14.07
2022-11-04T21:45:14.507Z,15.30
2022-11-04T21:48:16.100Z,15.07
2022-11-04T21:51:18.981Z,14.80
2022-11-04T21:54:20.547Z,14.30
2022-11-04T21:57:22.560Z,13.60
2022-11-04T22:00:24.200Z,14.57
2022-11-04T22:03:26.994Z,15.40
2022-11-04T22:06:33.673Z,15.03
2022-11-04T22:09:36.935Z,14.80
2022-11-04T22:12:38.475Z,15.93
2022-11-04T22:15:58.420Z,15.67
2022-11-04T22:19:01.417Z,14.43
2022-11-04T22:22:03.009Z,15.57
2022-11-04T22:25:05.033Z,15.20
2022-11-04T22:28:06.688Z,16.03
2022-11-04T22:31:09.437Z,15.70
2022-11-04T22:34:11.082Z,15.27
2022-11-04T22:37:13.082Z,14.93
2022-11-04T22:40:14.675Z,16.30
2022-11-04T22:43:16.231Z,15.73
2022-11-04T22:46:19.525Z,15.40
2022-11-04T22:49:21.449Z,14.20
2022-11-04T22:52:22.989Z,14.87
2022-11-04T22:55:24.553Z,14.63
2022-11-04T22:58:27.002Z,15.67
2022-11-04T23:01:28.822Z,14.83
2022-11-04T23:04:30.491Z,14.27
2022-11-04T23:07:32.203Z,14.33
2022-11-04T23:10:54.018Z,13.30
2022-11-04T23:14:20.143Z,14.03
2022-11-04T23:17:40.988Z,13.83
2022-11-04T23:20:42.641Z,13.70
2022-11-04T23:24:02.716Z,14.20
2022-11-04T23:27:04.234Z,13.87
2022-11-04T23:30:22.292Z,14.33
2022-11-04T23:33:43.760Z,14.17
2022-11-04T23:37:03.736Z,13.17
2022-11-04T23:40:05.656Z,13.27
2022-11-04T23:43:07.670Z,13.63
2022-11-04T23:46:30.343Z,14.40
2022-11-04T23:49:50.544Z,13.70
2022-11-04T23:53:10.749Z,13.17
2022-11-04T23:56:31.147Z,13.60
2022-11-04T23:59:51.513Z,13.83
